sensor_id;sensor_type;location;lat;lon;timestamp;temperature;humidity
64874;HTU21D;51367;45.204;38.576;2023-10-09T07:43:12;17.23;62.18
64874;HTU21D;51367;45.204;38.576;2023-10-09T07:45:42;17.14;61.81
64874;HTU21D;51367;45.204;38.576;2023-10-09T07:48:16;17.03;62.39
64874;HTU21D;51367;45.204;38.576;2023-10-09T07:50:51;17.11;62.76
64874;HTU21D;51367;45.204;38.576;2023-10-09T07:53:23;17.32;62.41
64874;HTU21D;51367;45.204;38.576;2023-10-09T07:55:53;17.51;61.92
64874;HTU21D;51367;45.204;38.576;2023-10-09T07:58:32;17.48;60.28
64874;HTU21D;51367;45.204;38.576;2023-10-09T08:01:12;17.36;60.29
64874;HTU21D;51367;45.204;38.576;2023-10-09T08:03:42;17.19;59.96
64874;HTU21D;51367;45.204;38.576;2023-10-09T08:06:12;17.13;60.19
64874;HTU21D;51367;45.204;38.576;2023-10-09T08:08:57;17.17;60.38
64874;HTU21D;51367;45.204;38.576;2023-10-09T08:11:47;17.25;60.35
64874;HTU21D;51367;45.204;38.576;2023-10-09T08:14:42;17.17;59.79
64874;HTU21D;51367;45.204;38.576;2023-10-09T08:17:14;16.94;59.89
64874;HTU21D;51367;45.204;38.576;2023-10-09T08:19:48;16.77;60.19
64874;HTU21D;51367;45.204;38.576;2023-10-09T08:22:30;16.76;60.96
64874;HTU21D;51367;45.204;38.576;2023-10-09T08:24:56;16.86;61.16
64874;HTU21D;51367;45.204;38.576;2023-10-09T08:27:23;16.89;60.72
64874;HTU21D;51367;45.204;38.576;2023-10-09T08:30:06;16.80;60.04
64874;HTU21D;51367;45.204;38.576;2023-10-09T08:35:36;16.70;59.10
64874;HTU21D;51367;45.204;38.576;2023-10-09T08:38:13;16.66;58.74
64874;HTU21D;51367;45.204;38.576;2023-10-09T08:40:41;16.57;58.16
64874;HTU21D;51367;45.204;38.576;2023-10-09T08:43:16;16.43;57.82
64874;HTU21D;51367;45.204;38.576;2023-10-09T08:45:51;16.28;58.06
64874;HTU21D;51367;45.204;38.576;2023-10-09T08:48:21;16.21;57.94
64874;HTU21D;51367;45.204;38.576;2023-10-09T08:50:49;16.20;57.90
64874;HTU21D;51367;45.204;38.576;2023-10-09T08:53:20;16.11;57.69
64874;HTU21D;51367;45.204;38.576;2023-10-09T08:55:47;15.93;57.64
64874;HTU21D;51367;45.204;38.576;2023-10-09T08:58:16;15.71;57.77
64874;HTU21D;51367;45.204;38.576;2023-10-09T09:00:52;15.62;57.98
64874;HTU21D;51367;45.204;38.576;2023-10-09T09:03:21;15.58;57.84
64874;HTU21D;51367;45.204;38.576;2023-10-09T09:05:59;15.55;57.64
64874;HTU21D;51367;45.204;38.576;2023-10-09T09:08:30;15.46;57.83
64874;HTU21D;51367;45.204;38.576;2023-10-09T09:11:09;15.36;57.45
64874;HTU21D;51367;45.204;38.576;2023-10-09T09:13:39;15.28;57.74
64874;HTU21D;51367;45.204;38.576;2023-10-09T09:16:23;15.30;57.80
64874;HTU21D;51367;45.204;38.576;2023-10-09T09:18:57;15.41;57.67
64874;HTU21D;51367;45.204;38.576;2023-10-09T09:21:40;15.56;57.59
64874;HTU21D;51367;45.204;38.576;2023-10-09T09:24:11;15.68;57.38
64874;HTU21D;51367;45.204;38.576;2023-10-09T09:26:43;15.72;57.16
64874;HTU21D;51367;45.204;38.576;2023-10-09T09:29:13;15.73;56.74
64874;HTU21D;51367;45.204;38.576;2023-10-09T09:31:54;15.74;56.93
64874;HTU21D;51367;45.204;38.576;2023-10-09T09:34:23;15.80;57.15
64874;HTU21D;51367;45.204;38.576;2023-10-09T09:36:58;15.91;57.03
64874;HTU21D;51367;45.204;38.576;2023-10-09T09:39:27;15.93;56.91
64874;HTU21D;51367;45.204;38.576;2023-10-09T09:41:58;16.01;56.74
64874;HTU21D;51367;45.204;38.576;2023-10-09T09:44:33;15.98;56.76
64874;HTU21D;51367;45.204;38.576;2023-10-09T09:47:12;15.95;56.75
64874;HTU21D;51367;45.204;38.576;2023-10-09T09:49:41;15.92;56.84
64874;HTU21D;51367;45.204;38.576;2023-10-09T09:52:08;15.95;56.78
64874;HTU21D;51367;45.204;38.576;2023-10-09T09:54:38;15.97;56.56
64874;HTU21D;51367;45.204;38.576;2023-10-09T09:57:07;16.01;56.39
64874;HTU21D;51367;45.204;38.576;2023-10-09T09:59:38;16.06;56.19
64874;HTU21D;51367;45.204;38.576;2023-10-09T10:02:30;16.14;55.91
64874;HTU21D;51367;45.204;38.576;2023-10-09T10:05:02;16.18;55.88
64874;HTU21D;51367;45.204;38.576;2023-10-09T10:07:32;16.24;55.79
64874;HTU21D;51367;45.204;38.576;2023-10-09T10:10:42;16.29;55.48
64874;HTU21D;51367;45.204;38.576;2023-10-09T10:13:16;16.33;55.46
64874;HTU21D;51367;45.204;38.576;2023-10-09T10:18:32;16.03;55.42
64874;HTU21D;51367;45.204;38.576;2023-10-09T10:23:42;15.45;56.01
64874;HTU21D;51367;45.204;38.576;2023-10-09T10:26:22;15.18;56.39
64874;HTU21D;51367;45.204;38.576;2023-10-09T10:29:18;15.07;56.84
64874;HTU21D;51367;45.204;38.576;2023-10-09T10:31:59;14.98;56.88
64874;HTU21D;51367;45.204;38.576;2023-10-09T10:35:00;14.83;56.84
64874;HTU21D;51367;45.204;38.576;2023-10-09T10:40:26;14.68;57.09
64874;HTU21D;51367;45.204;38.576;2023-10-09T10:43:23;14.54;57.00
64874;HTU21D;51367;45.204;38.576;2023-10-09T10:46:12;14.36;57.15
64874;HTU21D;51367;45.204;38.576;2023-10-09T10:48:53;14.32;57.40
64874;HTU21D;51367;45.204;38.576;2023-10-09T10:51:35;14.34;57.42
64874;HTU21D;51367;45.204;38.576;2023-10-09T10:54:03;14.47;57.46
64874;HTU21D;51367;45.204;38.576;2023-10-09T10:57:16;14.64;56.87
64874;HTU21D;51367;45.204;38.576;2023-10-09T10:59:45;14.78;56.61
64874;HTU21D;51367;45.204;38.576;2023-10-09T11:02:12;14.95;56.52
64874;HTU21D;51367;45.204;38.576;2023-10-09T11:04:38;15.12;56.23
64874;HTU21D;51367;45.204;38.576;2023-10-09T11:07:07;15.18;55.98
64874;HTU21D;51367;45.204;38.576;2023-10-09T11:09:55;15.11;55.71
64874;HTU21D;51367;45.204;38.576;2023-10-09T11:12:44;14.97;55.84
64874;HTU21D;51367;45.204;38.576;2023-10-09T11:15:16;14.82;55.94
64874;HTU21D;51367;45.204;38.576;2023-10-09T11:18:01;14.68;56.07
64874;HTU21D;51367;45.204;38.576;2023-10-09T11:20:36;14.56;56.35
64874;HTU21D;51367;45.204;38.576;2023-10-09T11:23:04;14.43;56.62
64874;HTU21D;51367;45.204;38.576;2023-10-09T11:25:38;14.36;56.87
64874;HTU21D;51367;45.204;38.576;2023-10-09T11:28:21;14.39;56.90
64874;HTU21D;51367;45.204;38.576;2023-10-09T11:31:11;14.37;56.81
64874;HTU21D;51367;45.204;38.576;2023-10-09T11:33:48;14.26;56.70
64874;HTU21D;51367;45.204;38.576;2023-10-09T11:36:21;14.17;56.91
64874;HTU21D;51367;45.204;38.576;2023-10-09T11:39:02;14.08;57.03
64874;HTU21D;51367;45.204;38.576;2023-10-09T11:41:47;14.06;57.27
64874;HTU21D;51367;45.204;38.576;2023-10-09T11:44:34;13.99;57.32
64874;HTU21D;51367;45.204;38.576;2023-10-09T11:47:00;14.05;57.48
64874;HTU21D;51367;45.204;38.576;2023-10-09T11:49:57;14.15;57.31
64874;HTU21D;51367;45.204;38.576;2023-10-09T11:52:26;14.14;57.32
64874;HTU21D;51367;45.204;38.576;2023-10-09T11:55:02;14.11;57.38
64874;HTU21D;51367;45.204;38.576;2023-10-09T11:57:28;14.04;57.39
64874;HTU21D;51367;45.204;38.576;2023-10-09T12:00:04;13.97;57.58
64874;HTU21D;51367;45.204;38.576;2023-10-09T12:02:48;14.00;57.67
64874;HTU21D;51367;45.204;38.576;2023-10-09T12:05:15;14.04;57.64
64874;HTU21D;51367;45.204;38.576;2023-10-09T12:07:46;14.08;57.59
64874;HTU21D;51367;45.204;38.576;2023-10-09T12:10:12;14.08;57.35
64874;HTU21D;51367;45.204;38.576;2023-10-09T12:12:43;14.03;57.38
64874;HTU21D;51367;45.204;38.576;2023-10-09T12:15:12;13.97;57.38
64874;HTU21D;51367;45.204;38.576;2023-10-09T12:17:47;13.92;57.32
64874;HTU21D;51367;45.204;38.576;2023-10-09T12:20:14;13.85;57.44
64874;HTU21D;51367;45.204;38.576;2023-10-09T12:23:03;13.81;57.28
64874;HTU21D;51367;45.204;38.576;2023-10-09T12:25:33;13.75;57.49
64874;HTU21D;51367;45.204;38.576;2023-10-09T12:28:02;13.71;57.53
64874;HTU21D;51367;45.204;38.576;2023-10-09T12:30:31;13.67;57.53
64874;HTU21D;51367;45.204;38.576;2023-10-09T12:33:04;13.62;57.60
64874;HTU21D;51367;45.204;38.576;2023-10-09T12:35:39;13.56;57.59
64874;HTU21D;51367;45.204;38.576;2023-10-09T12:38:06;13.51;57.60
64874;HTU21D;51367;45.204;38.576;2023-10-09T12:40:35;13.44;57.72
64874;HTU21D;51367;45.204;38.576;2023-10-09T12:43:02;13.37;57.77
64874;HTU21D;51367;45.204;38.576;2023-10-09T12:45:28;13.31;57.86
64874;HTU21D;51367;45.204;38.576;2023-10-09T12:47:59;13.24;57.93
64874;HTU21D;51367;45.204;38.576;2023-10-09T12:50:25;13.20;58.01
64874;HTU21D;51367;45.204;38.576;2023-10-09T12:52:59;13.15;57.98
64874;HTU21D;51367;45.204;38.576;2023-10-09T12:55:28;13.09;58.03
64874;HTU21D;51367;45.204;38.576;2023-10-09T12:58:01;13.03;58.12
64874;HTU21D;51367;45.204;38.576;2023-10-09T13:00:37;12.96;58.19
64874;HTU21D;51367;45.204;38.576;2023-10-09T13:03:08;12.93;58.24
64874;HTU21D;51367;45.204;38.576;2023-10-09T13:05:46;12.87;58.26
64874;HTU21D;51367;45.204;38.576;2023-10-09T13:08:26;12.82;58.30
64874;HTU21D;51367;45.204;38.576;2023-10-09T13:11:06;12.79;58.38
64874;HTU21D;51367;45.204;38.576;2023-10-09T13:13:43;12.75;58.42
64874;HTU21D;51367;45.204;38.576;2023-10-09T13:16:36;12.75;58.45
64874;HTU21D;51367;45.204;38.576;2023-10-09T13:19:03;12.73;58.48
64874;HTU21D;51367;45.204;38.576;2023-10-09T13:21:35;12.70;58.45
64874;HTU21D;51367;45.204;38.576;2023-10-09T13:24:03;12.65;58.43
64874;HTU21D;51367;45.204;38.576;2023-10-09T13:26:29;12.61;58.44
64874;HTU21D;51367;45.204;38.576;2023-10-09T13:29:03;12.56;58.51
64874;HTU21D;51367;45.204;38.576;2023-10-09T13:31:31;12.55;58.50
64874;HTU21D;51367;45.204;38.576;2023-10-09T13:33:59;12.51;58.54
64874;HTU21D;51367;45.204;38.576;2023-10-09T13:36:28;12.48;58.59
64874;HTU21D;51367;45.204;38.576;2023-10-09T13:39:00;12.47;58.57
64874;HTU21D;51367;45.204;38.576;2023-10-09T13:41:46;12.41;58.50
64874;HTU21D;51367;45.204;38.576;2023-10-09T13:44:12;12.35;58.60
64874;HTU21D;51367;45.204;38.576;2023-10-09T13:46:37;12.32;58.64
64874;HTU21D;51367;45.204;38.576;2023-10-09T13:49:10;12.28;58.67
64874;HTU21D;51367;45.204;38.576;2023-10-09T13:51:40;12.23;58.75
64874;HTU21D;51367;45.204;38.576;2023-10-09T13:54:11;12.19;58.71
64874;HTU21D;51367;45.204;38.576;2023-10-09T13:56:44;12.14;58.74
64874;HTU21D;51367;45.204;38.576;2023-10-09T13:59:09;12.11;58.76
64874;HTU21D;51367;45.204;38.576;2023-10-09T14:01:39;12.05;58.81
64874;HTU21D;51367;45.204;38.576;2023-10-09T14:04:05;12.02;58.83
64874;HTU21D;51367;45.204;38.576;2023-10-09T14:06:34;11.98;58.90
64874;HTU21D;51367;45.204;38.576;2023-10-09T14:09:02;11.98;58.90
64874;HTU21D;51367;45.204;38.576;2023-10-09T14:11:30;11.97;58.93
64874;HTU21D;51367;45.204;38.576;2023-10-09T14:13:56;11.94;58.93
64874;HTU21D;51367;45.204;38.576;2023-10-09T14:16:27;11.90;58.96
64874;HTU21D;51367;45.204;38.576;2023-10-09T14:18:56;11.88;59.00
64874;HTU21D;51367;45.204;38.576;2023-10-09T14:21:24;11.86;59.06
64874;HTU21D;51367;45.204;38.576;2023-10-09T14:23:52;11.83;59.09
64874;HTU21D;51367;45.204;38.576;2023-10-09T14:26:26;11.81;59.12
64874;HTU21D;51367;45.204;38.576;2023-10-09T14:28:54;11.76;59.12
64874;HTU21D;51367;45.204;38.576;2023-10-09T14:31:25;11.74;59.16
64874;HTU21D;51367;45.204;38.576;2023-10-09T14:33:56;11.74;59.18
64874;HTU21D;51367;45.204;38.576;2023-10-09T14:36:22;11.70;59.17
64874;HTU21D;51367;45.204;38.576;2023-10-09T14:38:50;11.67;59.20
64874;HTU21D;51367;45.204;38.576;2023-10-09T14:41:19;11.63;59.22
64874;HTU21D;51367;45.204;38.576;2023-10-09T14:43:50;11.60;59.26
64874;HTU21D;51367;45.204;38.576;2023-10-09T14:46:16;11.57;59.30
64874;HTU21D;51367;45.204;38.576;2023-10-09T14:48:46;11.53;59.32
64874;HTU21D;51367;45.204;38.576;2023-10-09T14:51:12;11.51;59.35
64874;HTU21D;51367;45.204;38.576;2023-10-09T14:53:39;11.48;59.40
64874;HTU21D;51367;45.204;38.576;2023-10-09T14:56:06;11.47;59.40
64874;HTU21D;51367;45.204;38.576;2023-10-09T14:58:35;11.44;59.42
64874;HTU21D;51367;45.204;38.576;2023-10-09T15:01:11;11.39;59.49
64874;HTU21D;51367;45.204;38.576;2023-10-09T15:03:41;11.30;59.66
64874;HTU21D;51367;45.204;38.576;2023-10-09T15:06:07;11.22;59.76
64874;HTU21D;51367;45.204;38.576;2023-10-09T15:08:36;11.16;59.90
64874;HTU21D;51367;45.204;38.576;2023-10-09T15:11:03;11.03;60.12
64874;HTU21D;51367;45.204;38.576;2023-10-09T15:13:29;10.87;60.36
64874;HTU21D;51367;45.204;38.576;2023-10-09T15:15:56;10.75;60.69
64874;HTU21D;51367;45.204;38.576;2023-10-09T15:18:22;10.68;60.74
64874;HTU21D;51367;45.204;38.576;2023-10-09T15:20:49;10.66;60.76
64874;HTU21D;51367;45.204;38.576;2023-10-09T15:23:15;10.63;60.78
64874;HTU21D;51367;45.204;38.576;2023-10-09T15:25:41;10.59;60.80
64874;HTU21D;51367;45.204;38.576;2023-10-09T15:28:11;10.57;60.84
64874;HTU21D;51367;45.204;38.576;2023-10-09T15:30:38;10.54;60.87
64874;HTU21D;51367;45.204;38.576;2023-10-09T15:33:05;10.52;60.90
64874;HTU21D;51367;45.204;38.576;2023-10-09T15:35:31;10.49;61.05
64874;HTU21D;51367;45.204;38.576;2023-10-09T15:38:01;10.39;61.17
64874;HTU21D;51367;45.204;38.576;2023-10-09T15:40:32;10.33;61.25
64874;HTU21D;51367;45.204;38.576;2023-10-09T15:43:03;10.26;61.32
64874;HTU21D;51367;45.204;38.576;2023-10-09T15:45:41;10.24;61.40
64874;HTU21D;51367;45.204;38.576;2023-10-09T15:48:07;10.26;61.39
64874;HTU21D;51367;45.204;38.576;2023-10-09T15:50:33;10.27;61.38
64874;HTU21D;51367;45.204;38.576;2023-10-09T15:53:00;10.28;61.34
64874;HTU21D;51367;45.204;38.576;2023-10-09T15:55:28;10.28;61.37
64874;HTU21D;51367;45.204;38.576;2023-10-09T15:57:54;10.24;61.40
64874;HTU21D;51367;45.204;38.576;2023-10-09T16:00:21;10.19;61.53
64874;HTU21D;51367;45.204;38.576;2023-10-09T16:02:54;10.11;61.67
64874;HTU21D;51367;45.204;38.576;2023-10-09T16:05:21;10.03;61.84
64874;HTU21D;51367;45.204;38.576;2023-10-09T16:07:55;9.95;62.14
64874;HTU21D;51367;45.204;38.576;2023-10-09T16:10:21;9.88;62.24
64874;HTU21D;51367;45.204;38.576;2023-10-09T16:12:48;9.83;62.29
64874;HTU21D;51367;45.204;38.576;2023-10-09T16:15:17;9.85;62.33
64874;HTU21D;51367;45.204;38.576;2023-10-09T16:17:48;9.84;62.39
64874;HTU21D;51367;45.204;38.576;2023-10-09T16:20:14;9.84;62.37
64874;HTU21D;51367;45.204;38.576;2023-10-09T16:22:48;9.85;62.34
64874;HTU21D;51367;45.204;38.576;2023-10-09T16:25:15;9.84;62.34
64874;HTU21D;51367;45.204;38.576;2023-10-09T16:27:46;9.85;62.37
64874;HTU21D;51367;45.204;38.576;2023-10-09T16:30:18;9.88;62.35
64874;HTU21D;51367;45.204;38.576;2023-10-09T16:32:46;9.86;62.38
64874;HTU21D;51367;45.204;38.576;2023-10-09T16:35:12;9.86;62.42
64874;HTU21D;51367;45.204;38.576;2023-10-09T16:37:38;9.86;62.45
64874;HTU21D;51367;45.204;38.576;2023-10-09T16:40:04;9.85;62.47
64874;HTU21D;51367;45.204;38.576;2023-10-09T16:42:39;9.88;62.47
64874;HTU21D;51367;45.204;38.576;2023-10-09T16:45:06;9.89;62.46
64874;HTU21D;51367;45.204;38.576;2023-10-09T16:47:50;9.89;62.47
64874;HTU21D;51367;45.204;38.576;2023-10-09T16:50:24;9.90;62.44
64874;HTU21D;51367;45.204;38.576;2023-10-09T16:52:56;9.91;62.44
64874;HTU21D;51367;45.204;38.576;2023-10-09T16:55:23;9.90;62.44
64874;HTU21D;51367;45.204;38.576;2023-10-09T16:57:50;9.90;62.42
64874;HTU21D;51367;45.204;38.576;2023-10-09T17:00:17;9.90;62.41
64874;HTU21D;51367;45.204;38.576;2023-10-09T17:02:57;9.91;62.41
64874;HTU21D;51367;45.204;38.576;2023-10-09T17:05:26;9.93;62.38
64874;HTU21D;51367;45.204;38.576;2023-10-09T17:07:59;9.93;62.37
64874;HTU21D;51367;45.204;38.576;2023-10-09T17:10:25;9.95;62.32
64874;HTU21D;51367;45.204;38.576;2023-10-09T17:12:54;9.95;62.28
64874;HTU21D;51367;45.204;38.576;2023-10-09T17:15:20;9.96;62.24
64874;HTU21D;51367;45.204;38.576;2023-10-09T17:17:47;9.98;62.21
64874;HTU21D;51367;45.204;38.576;2023-10-09T17:20:19;9.98;62.18
64874;HTU21D;51367;45.204;38.576;2023-10-09T17:22:50;9.97;62.17
64874;HTU21D;51367;45.204;38.576;2023-10-09T17:25:16;9.97;62.18
64874;HTU21D;51367;45.204;38.576;2023-10-09T17:27:45;9.97;62.17
64874;HTU21D;51367;45.204;38.576;2023-10-09T17:30:11;9.98;62.17
64874;HTU21D;51367;45.204;38.576;2023-10-09T17:32:44;9.97;62.16
64874;HTU21D;51367;45.204;38.576;2023-10-09T17:35:12;9.97;62.15
64874;HTU21D;51367;45.204;38.576;2023-10-09T17:37:40;9.95;62.16
64874;HTU21D;51367;45.204;38.576;2023-10-09T17:40:11;9.94;62.18
64874;HTU21D;51367;45.204;38.576;2023-10-09T17:42:43;9.92;62.21
64874;HTU21D;51367;45.204;38.576;2023-10-09T17:45:10;9.90;62.22
64874;HTU21D;51367;45.204;38.576;2023-10-09T17:47:36;9.88;62.23
64874;HTU21D;51367;45.204;38.576;2023-10-09T17:50:05;9.83;62.28
64874;HTU21D;51367;45.204;38.576;2023-10-09T17:52:37;9.80;62.29
64874;HTU21D;51367;45.204;38.576;2023-10-09T17:55:05;9.77;62.35
64874;HTU21D;51367;45.204;38.576;2023-10-09T17:57:39;9.76;62.40
64874;HTU21D;51367;45.204;38.576;2023-10-09T18:00:07;9.72;62.41
64874;HTU21D;51367;45.204;38.576;2023-10-09T18:02:53;9.74;62.42
64874;HTU21D;51367;45.204;38.576;2023-10-09T18:05:19;9.72;62.41
64874;HTU21D;51367;45.204;38.576;2023-10-09T18:07:45;9.72;62.42
64874;HTU21D;51367;45.204;38.576;2023-10-09T18:10:14;9.71;62.44
64874;HTU21D;51367;45.204;38.576;2023-10-09T18:12:42;9.69;62.47
64874;HTU21D;51367;45.204;38.576;2023-10-09T18:15:08;9.68;62.51
64874;HTU21D;51367;45.204;38.576;2023-10-09T18:17:39;9.67;62.52
64874;HTU21D;51367;45.204;38.576;2023-10-09T18:20:07;9.66;62.54
64874;HTU21D;51367;45.204;38.576;2023-10-09T18:22:33;9.65;62.53
64874;HTU21D;51367;45.204;38.576;2023-10-09T18:25:05;9.66;62.53
64874;HTU21D;51367;45.204;38.576;2023-10-09T18:27:32;9.66;62.53
64874;HTU21D;51367;45.204;38.576;2023-10-09T18:29:57;9.66;62.55
64874;HTU21D;51367;45.204;38.576;2023-10-09T18:32:24;9.64;62.56
64874;HTU21D;51367;45.204;38.576;2023-10-09T18:34:50;9.62;62.57
64874;HTU21D;51367;45.204;38.576;2023-10-09T18:37:16;9.60;62.64
64874;HTU21D;51367;45.204;38.576;2023-10-09T18:39:45;9.57;62.68
64874;HTU21D;51367;45.204;38.576;2023-10-09T18:42:12;9.59;62.68
64874;HTU21D;51367;45.204;38.576;2023-10-09T18:44:38;9.56;62.72
64874;HTU21D;51367;45.204;38.576;2023-10-09T18:47:08;9.54;62.77
64874;HTU21D;51367;45.204;38.576;2023-10-09T18:49:34;9.53;62.79
64874;HTU21D;51367;45.204;38.576;2023-10-09T18:52:03;9.54;62.79
64874;HTU21D;51367;45.204;38.576;2023-10-09T18:54:33;9.52;62.79
64874;HTU21D;51367;45.204;38.576;2023-10-09T18:57:04;9.49;62.80
64874;HTU21D;51367;45.204;38.576;2023-10-09T18:59:31;9.46;62.86
64874;HTU21D;51367;45.204;38.576;2023-10-09T19:01:57;9.45;62.92
64874;HTU21D;51367;45.204;38.576;2023-10-09T19:04:24;9.42;62.95
64874;HTU21D;51367;45.204;38.576;2023-10-09T19:06:50;9.41;62.98
64874;HTU21D;51367;45.204;38.576;2023-10-09T19:09:19;9.40;63.03
64874;HTU21D;51367;45.204;38.576;2023-10-09T19:11:51;9.39;63.03
64874;HTU21D;51367;45.204;38.576;2023-10-09T19:14:22;9.37;63.06
64874;HTU21D;51367;45.204;38.576;2023-10-09T19:16:50;9.36;63.10
64874;HTU21D;51367;45.204;38.576;2023-10-09T19:19:16;9.34;63.12
64874;HTU21D;51367;45.204;38.576;2023-10-09T19:21:41;9.32;63.18
64874;HTU21D;51367;45.204;38.576;2023-10-09T19:24:09;9.32;63.21
64874;HTU21D;51367;45.204;38.576;2023-10-09T19:26:40;9.32;63.21
64874;HTU21D;51367;45.204;38.576;2023-10-09T19:29:08;9.32;63.22
64874;HTU21D;51367;45.204;38.576;2023-10-09T19:31:36;9.33;63.25
64874;HTU21D;51367;45.204;38.576;2023-10-09T19:34:02;9.31;63.24
64874;HTU21D;51367;45.204;38.576;2023-10-09T19:36:30;9.33;63.29
64874;HTU21D;51367;45.204;38.576;2023-10-09T19:39:00;9.33;63.31
64874;HTU21D;51367;45.204;38.576;2023-10-09T19:41:26;9.33;63.30
64874;HTU21D;51367;45.204;38.576;2023-10-09T19:43:55;9.34;63.31
64874;HTU21D;51367;45.204;38.576;2023-10-09T19:46:21;9.34;63.28
64874;HTU21D;51367;45.204;38.576;2023-10-09T19:48:53;9.34;63.26
64874;HTU21D;51367;45.204;38.576;2023-10-09T19:51:21;9.32;63.26
64874;HTU21D;51367;45.204;38.576;2023-10-09T19:53:49;9.31;63.31
64874;HTU21D;51367;45.204;38.576;2023-10-09T19:56:18;9.27;63.33
64874;HTU21D;51367;45.204;38.576;2023-10-09T19:58:44;9.25;63.35
64874;HTU21D;51367;45.204;38.576;2023-10-09T20:01:12;9.24;63.42
64874;HTU21D;51367;45.204;38.576;2023-10-09T20:03:41;9.22;63.45
64874;HTU21D;51367;45.204;38.576;2023-10-09T20:06:11;9.20;63.49
64874;HTU21D;51367;45.204;38.576;2023-10-09T20:08:41;9.18;63.53
64874;HTU21D;51367;45.204;38.576;2023-10-09T20:11:09;9.17;63.56
64874;HTU21D;51367;45.204;38.576;2023-10-09T20:13:41;9.17;63.59
64874;HTU21D;51367;45.204;38.576;2023-10-09T20:16:10;9.14;63.61
64874;HTU21D;51367;45.204;38.576;2023-10-09T20:18:37;9.11;63.64
64874;HTU21D;51367;45.204;38.576;2023-10-09T20:21:08;9.08;63.69
64874;HTU21D;51367;45.204;38.576;2023-10-09T20:23:37;9.04;63.73
64874;HTU21D;51367;45.204;38.576;2023-10-09T20:26:04;9.01;63.78
64874;HTU21D;51367;45.204;38.576;2023-10-09T20:28:33;8.97;63.82
64874;HTU21D;51367;45.204;38.576;2023-10-09T20:31:03;8.94;63.86
64874;HTU21D;51367;45.204;38.576;2023-10-09T20:33:32;8.90;63.90
64874;HTU21D;51367;45.204;38.576;2023-10-09T20:36:06;8.86;63.96
64874;HTU21D;51367;45.204;38.576;2023-10-09T20:38:36;8.85;63.99
64874;HTU21D;51367;45.204;38.576;2023-10-09T20:41:06;8.81;64.05
64874;HTU21D;51367;45.204;38.576;2023-10-09T20:43:35;8.78;64.06
64874;HTU21D;51367;45.204;38.576;2023-10-09T20:46:03;8.75;64.11
64874;HTU21D;51367;45.204;38.576;2023-10-09T20:48:29;8.74;64.13
64874;HTU21D;51367;45.204;38.576;2023-10-09T20:50:55;8.72;64.16
64874;HTU21D;51367;45.204;38.576;2023-10-09T20:53:21;8.67;64.21
64874;HTU21D;51367;45.204;38.576;2023-10-09T20:55:50;8.64;64.26
64874;HTU21D;51367;45.204;38.576;2023-10-09T20:58:23;8.60;64.30
64874;HTU21D;51367;45.204;38.576;2023-10-09T21:00:50;8.56;64.34
64874;HTU21D;51367;45.204;38.576;2023-10-09T21:03:16;8.52;64.40
64874;HTU21D;51367;45.204;38.576;2023-10-09T21:05:42;8.48;64.47
64874;HTU21D;51367;45.204;38.576;2023-10-09T21:08:08;8.44;64.53
64874;HTU21D;51367;45.204;38.576;2023-10-09T21:10:35;8.41;64.63
64874;HTU21D;51367;45.204;38.576;2023-10-09T21:13:06;8.37;64.68
64874;HTU21D;51367;45.204;38.576;2023-10-09T21:15:36;8.33;64.74
64874;HTU21D;51367;45.204;38.576;2023-10-09T21:18:03;8.32;64.78
64874;HTU21D;51367;45.204;38.576;2023-10-09T21:20:30;8.29;64.82
64874;HTU21D;51367;45.204;38.576;2023-10-09T21:22:56;8.28;64.86
64874;HTU21D;51367;45.204;38.576;2023-10-09T21:25:24;8.23;64.91
64874;HTU21D;51367;45.204;38.576;2023-10-09T21:27:51;8.22;64.92
64874;HTU21D;51367;45.204;38.576;2023-10-09T21:30:24;8.18;65.00
64874;HTU21D;51367;45.204;38.576;2023-10-09T21:32:51;8.15;65.04
64874;HTU21D;51367;45.204;38.576;2023-10-09T21:35:20;8.13;65.11
64874;HTU21D;51367;45.204;38.576;2023-10-09T21:37:51;8.08;65.17
64874;HTU21D;51367;45.204;38.576;2023-10-09T21:40:22;8.06;65.20
64874;HTU21D;51367;45.204;38.576;2023-10-09T21:42:55;8.03;65.24
64874;HTU21D;51367;45.204;38.576;2023-10-09T21:45:23;8.00;65.28
64874;HTU21D;51367;45.204;38.576;2023-10-09T21:47:51;7.99;65.31
64874;HTU21D;51367;45.204;38.576;2023-10-09T21:50:27;7.97;65.34
64874;HTU21D;51367;45.204;38.576;2023-10-09T21:52:56;7.96;65.39
64874;HTU21D;51367;45.204;38.576;2023-10-09T21:55:23;7.93;65.41
64874;HTU21D;51367;45.204;38.576;2023-10-09T21:57:50;7.91;65.44
64874;HTU21D;51367;45.204;38.576;2023-10-09T22:00:16;7.92;65.48
64874;HTU21D;51367;45.204;38.576;2023-10-09T22:02:47;7.90;65.49
64874;HTU21D;51367;45.204;38.576;2023-10-09T22:05:13;7.87;65.51
64874;HTU21D;51367;45.204;38.576;2023-10-09T22:07:40;7.87;65.56
64874;HTU21D;51367;45.204;38.576;2023-10-09T22:10:09;7.85;65.59
64874;HTU21D;51367;45.204;38.576;2023-10-09T22:12:46;7.83;65.64
64874;HTU21D;51367;45.204;38.576;2023-10-09T22:15:13;7.84;65.65
64874;HTU21D;51367;45.204;38.576;2023-10-09T22:17:40;7.79;65.69
64874;HTU21D;51367;45.204;38.576;2023-10-09T22:20:18;7.79;65.73
64874;HTU21D;51367;45.204;38.576;2023-10-09T22:22:49;7.77;65.73
64874;HTU21D;51367;45.204;38.576;2023-10-09T22:25:16;7.75;65.75
64874;HTU21D;51367;45.204;38.576;2023-10-09T22:27:43;7.76;65.76
64874;HTU21D;51367;45.204;38.576;2023-10-09T22:30:20;7.75;65.77
64874;HTU21D;51367;45.204;38.576;2023-10-09T22:32:46;7.76;65.79
64874;HTU21D;51367;45.204;38.576;2023-10-09T22:35:14;7.75;65.82
64874;HTU21D;51367;45.204;38.576;2023-10-09T22:37:40;7.74;65.84
64874;HTU21D;51367;45.204;38.576;2023-10-09T22:40:07;7.75;65.85
64874;HTU21D;51367;45.204;38.576;2023-10-09T22:42:55;7.74;65.85
64874;HTU21D;51367;45.204;38.576;2023-10-09T22:45:24;7.72;65.84
64874;HTU21D;51367;45.204;38.576;2023-10-09T22:47:57;7.71;65.87
64874;HTU21D;51367;45.204;38.576;2023-10-09T22:50:25;7.69;65.91
64874;HTU21D;51367;45.204;38.576;2023-10-09T22:53:04;7.69;65.92
64874;HTU21D;51367;45.204;38.576;2023-10-09T22:55:52;7.69;65.91
64874;HTU21D;51367;45.204;38.576;2023-10-09T22:58:19;7.68;65.95
64874;HTU21D;51367;45.204;38.576;2023-10-09T23:00:52;7.65;65.98
64874;HTU21D;51367;45.204;38.576;2023-10-09T23:03:21;7.65;66.01
64874;HTU21D;51367;45.204;38.576;2023-10-09T23:05:57;7.64;66.02
64874;HTU21D;51367;45.204;38.576;2023-10-09T23:08:30;7.64;66.04
64874;HTU21D;51367;45.204;38.576;2023-10-09T23:10:57;7.64;66.07
64874;HTU21D;51367;45.204;38.576;2023-10-09T23:13:36;7.63;66.09
64874;HTU21D;51367;45.204;38.576;2023-10-09T23:16:05;7.63;66.11
64874;HTU21D;51367;45.204;38.576;2023-10-09T23:18:35;7.63;66.12
64874;HTU21D;51367;45.204;38.576;2023-10-09T23:21:30;7.63;66.09
64874;HTU21D;51367;45.204;38.576;2023-10-09T23:24:15;7.62;66.14
64874;HTU21D;51367;45.204;38.576;2023-10-09T23:26:53;7.60;66.15